sensor_id;sensor_type;location;lat;lon;timestamp;P1;durP1;ratioP1;P2;durP2;ratioP2
43042;SDS011;28667;50.758;6.096;2023-03-01T00:01:14;5.80;;;3.28;;
43042;SDS011;28667;50.758;6.096;2023-03-01T00:03:41;7.60;;;3.58;;
43042;SDS011;28667;50.758;6.096;2023-03-01T00:06:07;5.90;;;3.58;;
43042;SDS011;28667;50.758;6.096;2023-03-01T00:08:33;3.72;;;2.78;;
43042;SDS011;28667;50.758;6.096;2023-03-01T00:11:08;3.00;;;2.42;;
43042;SDS011;28667;50.758;6.096;2023-03-01T00:45:08;3.40;;;2.15;;
43042;SDS011;28667;50.758;6.096;2023-03-01T00:47:34;5.30;;;2.57;;
43042;SDS011;28667;50.758;6.096;2023-03-01T00:50:00;5.50;;;2.60;;
43042;SDS011;28667;50.758;6.096;2023-03-01T01:07:02;8.70;;;3.40;;
43042;SDS011;28667;50.758;6.096;2023-03-01T01:09:28;4.60;;;2.03;;
43042;SDS011;28667;50.758;6.096;2023-03-01T01:11:54;3.17;;;2.38;;
43042;SDS011;28667;50.758;6.096;2023-03-01T01:14:19;6.15;;;3.22;;
43042;SDS011;28667;50.758;6.096;2023-03-01T01:16:45;2.95;;;2.35;;
43042;SDS011;28667;50.758;6.096;2023-03-01T01:19:11;4.35;;;2.58;;
43042;SDS011;28667;50.758;6.096;2023-03-01T01:21:37;5.18;;;2.67;;
43042;SDS011;28667;50.758;6.096;2023-03-01T01:24:03;4.18;;;2.97;;
43042;SDS011;28667;50.758;6.096;2023-03-01T01:26:31;6.03;;;2.60;;
43042;SDS011;28667;50.758;6.096;2023-03-01T01:28:58;6.22;;;2.55;;
43042;SDS011;28667;50.758;6.096;2023-03-01T01:31:26;4.50;;;2.45;;
43042;SDS011;28667;50.758;6.096;2023-03-01T01:33:53;3.35;;;2.80;;
43042;SDS011;28667;50.758;6.096;2023-03-01T01:36:20;2.70;;;2.10;;
43042;SDS011;28667;50.758;6.096;2023-03-01T01:38:46;4.72;;;2.58;;
43042;SDS011;28667;50.758;6.096;2023-03-01T01:41:12;6.13;;;2.50;;
43042;SDS011;28667;50.758;6.096;2023-03-01T01:43:39;3.65;;;2.45;;
43042;SDS011;28667;50.758;6.096;2023-03-01T01:49:03;8.93;;;2.40;;
43042;SDS011;28667;50.758;6.096;2023-03-01T01:51:34;4.05;;;2.47;;
43042;SDS011;28667;50.758;6.096;2023-03-01T01:54:06;4.20;;;2.67;;
43042;SDS011;28667;50.758;6.096;2023-03-01T01:56:58;5.63;;;3.20;;
43042;SDS011;28667;50.758;6.096;2023-03-01T02:01:56;3.35;;;2.92;;
43042;SDS011;28667;50.758;6.096;2023-03-01T02:04:24;3.67;;;2.13;;
43042;SDS011;28667;50.758;6.096;2023-03-01T02:07:01;3.53;;;2.60;;
43042;SDS011;28667;50.758;6.096;2023-03-01T02:09:28;4.60;;;2.00;;
43042;SDS011;28667;50.758;6.096;2023-03-01T02:11:57;6.13;;;3.95;;
43042;SDS011;28667;50.758;6.096;2023-03-01T02:14:23;5.03;;;2.25;;
43042;SDS011;28667;50.758;6.096;2023-03-01T02:16:49;7.22;;;2.88;;
43042;SDS011;28667;50.758;6.096;2023-03-01T02:19:33;3.28;;;2.75;;
43042;SDS011;28667;50.758;6.096;2023-03-01T02:22:30;3.28;;;1.95;;
43042;SDS011;28667;50.758;6.096;2023-03-01T02:27:38;5.20;;;2.38;;
43042;SDS011;28667;50.758;6.096;2023-03-01T02:30:18;3.17;;;2.65;;
43042;SDS011;28667;50.758;6.096;2023-03-01T02:32:46;4.85;;;2.83;;
43042;SDS011;28667;50.758;6.096;2023-03-01T02:35:13;3.60;;;2.28;;
43042;SDS011;28667;50.758;6.096;2023-03-01T02:37:40;6.22;;;2.95;;
43042;SDS011;28667;50.758;6.096;2023-03-01T02:40:08;4.72;;;2.60;;
43042;SDS011;28667;50.758;6.096;2023-03-01T02:42:51;4.43;;;2.33;;
43042;SDS011;28667;50.758;6.096;2023-03-01T02:45:19;5.18;;;2.65;;
43042;SDS011;28667;50.758;6.096;2023-03-01T02:47:46;4.28;;;2.53;;
43042;SDS011;28667;50.758;6.096;2023-03-01T02:51:00;4.38;;;3.17;;
43042;SDS011;28667;50.758;6.096;2023-03-01T02:53:14;4.70;;;2.47;;
43042;SDS011;28667;50.758;6.096;2023-03-01T02:55:49;6.90;;;2.50;;
43042;SDS011;28667;50.758;6.096;2023-03-01T02:58:15;4.93;;;2.60;;
43042;SDS011;28667;50.758;6.096;2023-03-01T03:00:42;8.13;;;3.13;;
43042;SDS011;28667;50.758;6.096;2023-03-01T03:03:14;5.13;;;3.30;;
43042;SDS011;28667;50.758;6.096;2023-03-01T03:05:42;6.07;;;2.67;;
43042;SDS011;28667;50.758;6.096;2023-03-01T03:08:08;3.72;;;2.17;;
43042;SDS011;28667;50.758;6.096;2023-03-01T03:10:37;4.85;;;3.33;;
43042;SDS011;28667;50.758;6.096;2023-03-01T03:13:08;4.63;;;2.58;;
43042;SDS011;28667;50.758;6.096;2023-03-01T03:15:36;4.32;;;2.10;;
43042;SDS011;28667;50.758;6.096;2023-03-01T03:18:05;6.70;;;2.35;;
43042;SDS011;28667;50.758;6.096;2023-03-01T03:20:33;5.22;;;2.80;;
43042;SDS011;28667;50.758;6.096;2023-03-01T03:23:00;5.72;;;3.38;;
43042;SDS011;28667;50.758;6.096;2023-03-01T03:25:26;7.18;;;2.60;;
43042;SDS011;28667;50.758;6.096;2023-03-01T03:27:54;6.03;;;3.67;;
43042;SDS011;28667;50.758;6.096;2023-03-01T03:30:22;6.65;;;3.30;;
43042;SDS011;28667;50.758;6.096;2023-03-01T03:32:52;6.97;;;3.00;;
43042;SDS011;28667;50.758;6.096;2023-03-01T03:35:26;8.18;;;3.47;;
43042;SDS011;28667;50.758;6.096;2023-03-01T03:37:55;5.57;;;2.97;;
43042;SDS011;28667;50.758;6.096;2023-03-01T03:43:07;7.22;;;4.00;;
43042;SDS011;28667;50.758;6.096;2023-03-01T03:45:35;5.22;;;3.08;;
43042;SDS011;28667;50.758;6.096;2023-03-01T03:48:02;3.05;;;2.55;;
43042;SDS011;28667;50.758;6.096;2023-03-01T03:50:30;5.38;;;2.95;;
43042;SDS011;28667;50.758;6.096;2023-03-01T03:52:56;4.13;;;2.42;;
43042;SDS011;28667;50.758;6.096;2023-03-01T03:55:25;7.53;;;3.20;;
43042;SDS011;28667;50.758;6.096;2023-03-01T03:57:56;5.93;;;3.40;;
43042;SDS011;28667;50.758;6.096;2023-03-01T04:00:23;6.40;;;2.88;;
43042;SDS011;28667;50.758;6.096;2023-03-01T04:02:50;4.05;;;2.55;;
43042;SDS011;28667;50.758;6.096;2023-03-01T04:05:17;6.55;;;3.22;;
43042;SDS011;28667;50.758;6.096;2023-03-01T04:07:44;4.32;;;2.38;;
43042;SDS011;28667;50.758;6.096;2023-03-01T04:10:14;3.55;;;2.78;;
43042;SDS011;28667;50.758;6.096;2023-03-01T04:12:42;4.43;;;3.05;;
43042;SDS011;28667;50.758;6.096;2023-03-01T04:15:08;6.53;;;3.25;;
43042;SDS011;28667;50.758;6.096;2023-03-01T04:17:39;8.10;;;3.92;;
43042;SDS011;28667;50.758;6.096;2023-03-01T04:20:10;10.90;;;2.95;;
43042;SDS011;28667;50.758;6.096;2023-03-01T04:22:37;6.47;;;2.83;;
43042;SDS011;28667;50.758;6.096;2023-03-01T04:25:03;4.07;;;2.85;;
43042;SDS011;28667;50.758;6.096;2023-03-01T04:27:34;8.85;;;3.70;;
43042;SDS011;28667;50.758;6.096;2023-03-01T04:30:01;7.25;;;3.50;;
43042;SDS011;28667;50.758;6.096;2023-03-01T04:32:28;6.30;;;3.00;;
43042;SDS011;28667;50.758;6.096;2023-03-01T04:34:54;8.82;;;3.97;;
43042;SDS011;28667;50.758;6.096;2023-03-01T04:37:19;6.00;;;3.53;;
43042;SDS011;28667;50.758;6.096;2023-03-01T04:39:45;4.18;;;2.35;;
43042;SDS011;28667;50.758;6.096;2023-03-01T04:42:13;7.22;;;3.50;;
43042;SDS011;28667;50.758;6.096;2023-03-01T04:44:39;8.55;;;3.10;;
43042;SDS011;28667;50.758;6.096;2023-03-01T04:47:05;3.50;;;2.67;;
43042;SDS011;28667;50.758;6.096;2023-03-01T04:49:31;7.70;;;3.08;;
43042;SDS011;28667;50.758;6.096;2023-03-01T04:51:57;6.45;;;3.35;;
43042;SDS011;28667;50.758;6.096;2023-03-01T04:54:27;7.18;;;3.92;;
43042;SDS011;28667;50.758;6.096;2023-03-01T04:56:53;6.53;;;3.05;;
43042;SDS011;28667;50.758;6.096;2023-03-01T04:59:20;7.38;;;3.33;;
43042;SDS011;28667;50.758;6.096;2023-03-01T05:01:48;12.30;;;3.30;;
43042;SDS011;28667;50.758;6.096;2023-03-01T05:04:17;4.30;;;3.60;;
43042;SDS011;28667;50.758;6.096;2023-03-01T05:06:43;3.80;;;3.28;;
43042;SDS011;28667;50.758;6.096;2023-03-01T05:09:09;7.60;;;3.30;;
43042;SDS011;28667;50.758;6.096;2023-03-01T05:11:36;4.68;;;3.30;;
43042;SDS011;28667;50.758;6.096;2023-03-01T05:14:03;9.50;;;3.30;;
43042;SDS011;28667;50.758;6.096;2023-03-01T05:16:29;5.03;;;2.58;;
43042;SDS011;28667;50.758;6.096;2023-03-01T05:18:56;5.15;;;3.20;;
43042;SDS011;28667;50.758;6.096;2023-03-01T05:21:22;6.10;;;3.70;;
43042;SDS011;28667;50.758;6.096;2023-03-01T05:23:48;15.10;;;3.60;;
43042;SDS011;28667;50.758;6.096;2023-03-01T05:26:15;4.60;;;3.15;;
43042;SDS011;28667;50.758;6.096;2023-03-01T05:28:42;3.88;;;3.53;;
43042;SDS011;28667;50.758;6.096;2023-03-01T05:31:09;6.40;;;3.22;;
43042;SDS011;28667;50.758;6.096;2023-03-01T05:33:38;6.50;;;4.07;;
43042;SDS011;28667;50.758;6.096;2023-03-01T05:36:05;6.13;;;3.22;;
43042;SDS011;28667;50.758;6.096;2023-03-01T05:38:34;5.68;;;3.13;;
43042;SDS011;28667;50.758;6.096;2023-03-01T05:41:01;6.20;;;3.70;;
43042;SDS011;28667;50.758;6.096;2023-03-01T05:43:29;3.60;;;2.92;;
43042;SDS011;28667;50.758;6.096;2023-03-01T05:45:59;5.18;;;3.53;;
43042;SDS011;28667;50.758;6.096;2023-03-01T05:48:25;5.45;;;3.20;;
43042;SDS011;28667;50.758;6.096;2023-03-01T05:50:51;6.35;;;2.75;;
43042;SDS011;28667;50.758;6.096;2023-03-01T05:53:18;7.07;;;3.53;;
43042;SDS011;28667;50.758;6.096;2023-03-01T05:55:48;4.72;;;3.45;;
43042;SDS011;28667;50.758;6.096;2023-03-01T05:58:16;5.43;;;3.40;;
43042;SDS011;28667;50.758;6.096;2023-03-01T06:00:43;11.63;;;4.28;;
43042;SDS011;28667;50.758;6.096;2023-03-01T06:03:11;9.90;;;4.13;;
43042;SDS011;28667;50.758;6.096;2023-03-01T06:05:38;7.88;;;3.85;;
43042;SDS011;28667;50.758;6.096;2023-03-01T06:08:05;7.15;;;3.13;;
43042;SDS011;28667;50.758;6.096;2023-03-01T06:10:30;13.52;;;4.90;;
43042;SDS011;28667;50.758;6.096;2023-03-01T06:12:56;6.13;;;3.38;;
43042;SDS011;28667;50.758;6.096;2023-03-01T06:15:23;4.68;;;3.17;;
43042;SDS011;28667;50.758;6.096;2023-03-01T06:17:50;8.48;;;3.15;;
43042;SDS011;28667;50.758;6.096;2023-03-01T06:20:19;8.63;;;3.17;;
43042;SDS011;28667;50.758;6.096;2023-03-01T06:22:47;4.90;;;3.10;;
43042;SDS011;28667;50.758;6.096;2023-03-01T06:25:15;9.55;;;4.47;;
43042;SDS011;28667;50.758;6.096;2023-03-01T06:27:45;5.22;;;2.80;;
43042;SDS011;28667;50.758;6.096;2023-03-01T06:30:12;9.02;;;4.28;;
43042;SDS011;28667;50.758;6.096;2023-03-01T06:32:40;7.55;;;4.63;;
43042;SDS011;28667;50.758;6.096;2023-03-01T06:35:10;10.35;;;3.78;;
43042;SDS011;28667;50.758;6.096;2023-03-01T06:37:36;8.00;;;4.43;;
43042;SDS011;28667;50.758;6.096;2023-03-01T06:40:03;9.27;;;4.00;;
43042;SDS011;28667;50.758;6.096;2023-03-01T06:42:36;8.20;;;4.25;;
43042;SDS011;28667;50.758;6.096;2023-03-01T06:45:03;4.03;;;3.33;;
43042;SDS011;28667;50.758;6.096;2023-03-01T06:47:31;5.28;;;3.72;;
43042;SDS011;28667;50.758;6.096;2023-03-01T06:49:58;13.73;;;4.55;;
43042;SDS011;28667;50.758;6.096;2023-03-01T06:52:24;6.28;;;4.03;;
43042;SDS011;28667;50.758;6.096;2023-03-01T06:54:50;18.45;;;4.30;;
43042;SDS011;28667;50.758;6.096;2023-03-01T06:57:16;6.55;;;3.75;;
43042;SDS011;28667;50.758;6.096;2023-03-01T06:59:42;11.90;;;5.05;;
43042;SDS011;28667;50.758;6.096;2023-03-01T07:02:11;7.65;;;3.58;;
43042;SDS011;28667;50.758;6.096;2023-03-01T07:04:39;8.10;;;4.90;;
43042;SDS011;28667;50.758;6.096;2023-03-01T07:07:05;6.13;;;3.70;;
43042;SDS011;28667;50.758;6.096;2023-03-01T07:09:31;8.60;;;4.25;;
43042;SDS011;28667;50.758;6.096;2023-03-01T07:11:56;4.20;;;3.65;;
43042;SDS011;28667;50.758;6.096;2023-03-01T07:14:23;7.10;;;3.22;;
43042;SDS011;28667;50.758;6.096;2023-03-01T07:16:52;7.30;;;3.65;;
43042;SDS011;28667;50.758;6.096;2023-03-01T07:19:18;8.95;;;4.53;;
43042;SDS011;28667;50.758;6.096;2023-03-01T07:21:44;11.75;;;4.88;;
43042;SDS011;28667;50.758;6.096;2023-03-01T07:24:10;11.65;;;4.65;;
43042;SDS011;28667;50.758;6.096;2023-03-01T07:26:36;8.43;;;4.40;;
43042;SDS011;28667;50.758;6.096;2023-03-01T07:29:03;6.22;;;3.92;;
43042;SDS011;28667;50.758;6.096;2023-03-01T07:31:31;6.35;;;3.67;;
43042;SDS011;28667;50.758;6.096;2023-03-01T07:33:57;8.77;;;3.17;;
43042;SDS011;28667;50.758;6.096;2023-03-01T07:36:23;5.97;;;3.70;;
43042;SDS011;28667;50.758;6.096;2023-03-01T07:38:49;8.70;;;4.65;;
43042;SDS011;28667;50.758;6.096;2023-03-01T07:41:15;8.90;;;4.15;;
43042;SDS011;28667;50.758;6.096;2023-03-01T07:43:41;10.45;;;5.88;;
43042;SDS011;28667;50.758;6.096;2023-03-01T07:46:09;8.73;;;3.85;;
43042;SDS011;28667;50.758;6.096;2023-03-01T07:48:38;12.07;;;4.53;;
43042;SDS011;28667;50.758;6.096;2023-03-01T07:51:04;11.52;;;4.85;;
43042;SDS011;28667;50.758;6.096;2023-03-01T07:53:31;7.03;;;4.35;;
43042;SDS011;28667;50.758;6.096;2023-03-01T07:58:27;16.35;;;6.03;;
43042;SDS011;28667;50.758;6.096;2023-03-01T08:00:53;13.68;;;5.45;;
43042;SDS011;28667;50.758;6.096;2023-03-01T08:03:19;12.30;;;4.85;;
43042;SDS011;28667;50.758;6.096;2023-03-01T08:05:44;14.68;;;5.93;;
43042;SDS011;28667;50.758;6.096;2023-03-01T08:08:10;12.55;;;4.75;;
43042;SDS011;28667;50.758;6.096;2023-03-01T08:10:36;13.90;;;5.80;;
43042;SDS011;28667;50.758;6.096;2023-03-01T08:13:02;10.75;;;4.65;;
43042;SDS011;28667;50.758;6.096;2023-03-01T08:15:27;12.90;;;4.90;;
43042;SDS011;28667;50.758;6.096;2023-03-01T08:17:53;7.75;;;4.88;;
43042;SDS011;28667;50.758;6.096;2023-03-01T08:20:19;10.30;;;5.10;;
43042;SDS011;28667;50.758;6.096;2023-03-01T08:22:45;8.05;;;4.60;;
43042;SDS011;28667;50.758;6.096;2023-03-01T08:25:10;10.52;;;5.13;;
43042;SDS011;28667;50.758;6.096;2023-03-01T08:27:36;13.93;;;5.13;;
43042;SDS011;28667;50.758;6.096;2023-03-01T08:30:02;12.57;;;5.30;;
43042;SDS011;28667;50.758;6.096;2023-03-01T08:32:28;7.38;;;4.05;;
43042;SDS011;28667;50.758;6.096;2023-03-01T08:34:54;11.70;;;6.13;;
43042;SDS011;28667;50.758;6.096;2023-03-01T08:37:19;10.48;;;5.85;;
43042;SDS011;28667;50.758;6.096;2023-03-01T08:39:46;12.35;;;5.47;;
43042;SDS011;28667;50.758;6.096;2023-03-01T08:42:11;10.80;;;5.18;;
43042;SDS011;28667;50.758;6.096;2023-03-01T08:44:37;9.48;;;4.43;;
43042;SDS011;28667;50.758;6.096;2023-03-01T08:47:03;10.07;;;5.30;;
43042;SDS011;28667;50.758;6.096;2023-03-01T08:49:29;13.10;;;5.47;;
43042;SDS011;28667;50.758;6.096;2023-03-01T08:51:57;9.10;;;5.55;;
43042;SDS011;28667;50.758;6.096;2023-03-01T08:54:23;12.20;;;6.05;;
43042;SDS011;28667;50.758;6.096;2023-03-01T08:56:49;13.90;;;5.40;;
43042;SDS011;28667;50.758;6.096;2023-03-01T08:59:15;9.77;;;5.50;;
43042;SDS011;28667;50.758;6.096;2023-03-01T09:01:42;10.90;;;5.65;;
43042;SDS011;28667;50.758;6.096;2023-03-01T09:04:08;8.45;;;4.53;;
43042;SDS011;28667;50.758;6.096;2023-03-01T09:06:35;10.65;;;4.82;;
43042;SDS011;28667;50.758;6.096;2023-03-01T09:09:01;6.65;;;5.28;;
43042;SDS011;28667;50.758;6.096;2023-03-01T09:11:28;12.45;;;6.03;;
43042;SDS011;28667;50.758;6.096;2023-03-01T09:13:54;10.23;;;5.82;;
43042;SDS011;28667;50.758;6.096;2023-03-01T09:16:21;11.55;;;5.68;;
43042;SDS011;28667;50.758;6.096;2023-03-01T09:18:52;10.20;;;5.68;;
43042;SDS011;28667;50.758;6.096;2023-03-01T09:21:19;11.80;;;5.25;;
43042;SDS011;28667;50.758;6.096;2023-03-01T09:23:46;8.90;;;4.75;;
43042;SDS011;28667;50.758;6.096;2023-03-01T09:26:17;13.88;;;5.82;;
43042;SDS011;28667;50.758;6.096;2023-03-01T09:28:45;14.27;;;5.65;;
43042;SDS011;28667;50.758;6.096;2023-03-01T09:31:12;15.07;;;6.00;;
43042;SDS011;28667;50.758;6.096;2023-03-01T09:33:39;9.30;;;5.00;;
43042;SDS011;28667;50.758;6.096;2023-03-01T09:36:06;9.65;;;4.95;;
43042;SDS011;28667;50.758;6.096;2023-03-01T09:38:36;13.80;;;6.57;;
43042;SDS011;28667;50.758;6.096;2023-03-01T09:41:02;11.88;;;5.72;;
43042;SDS011;28667;50.758;6.096;2023-03-01T09:46:19;17.67;;;6.07;;
43042;SDS011;28667;50.758;6.096;2023-03-01T09:49:09;14.80;;;6.95;;
43042;SDS011;28667;50.758;6.096;2023-03-01T09:51:39;11.23;;;5.90;;
43042;SDS011;28667;50.758;6.096;2023-03-01T09:54:05;13.50;;;5.90;;
43042;SDS011;28667;50.758;6.096;2023-03-01T09:56:34;11.73;;;6.00;;
43042;SDS011;28667;50.758;6.096;2023-03-01T10:01:55;18.63;;;5.20;;
43042;SDS011;28667;50.758;6.096;2023-03-01T10:09:50;11.13;;;5.57;;
43042;SDS011;28667;50.758;6.096;2023-03-01T10:12:17;11.13;;;5.80;;
43042;SDS011;28667;50.758;6.096;2023-03-01T10:19:53;12.35;;;5.82;;
43042;SDS011;28667;50.758;6.096;2023-03-01T10:22:27;15.23;;;6.30;;
43042;SDS011;28667;50.758;6.096;2023-03-01T10:24:55;12.88;;;6.47;;
43042;SDS011;28667;50.758;6.096;2023-03-01T10:27:25;9.63;;;5.60;;
43042;SDS011;28667;50.758;6.096;2023-03-01T10:32:37;11.60;;;5.90;;
43042;SDS011;28667;50.758;6.096;2023-03-01T10:35:15;11.90;;;6.20;;
43042;SDS011;28667;50.758;6.096;2023-03-01T10:37:56;11.52;;;5.18;;
43042;SDS011;28667;50.758;6.096;2023-03-01T10:40:23;12.80;;;6.20;;
43042;SDS011;28667;50.758;6.096;2023-03-01T10:42:48;11.88;;;5.65;;
43042;SDS011;28667;50.758;6.096;2023-03-01T10:45:32;13.50;;;5.93;;
43042;SDS011;28667;50.758;6.096;2023-03-01T10:50:51;13.43;;;5.90;;
43042;SDS011;28667;50.758;6.096;2023-03-01T10:53:44;16.17;;;6.43;;
43042;SDS011;28667;50.758;6.096;2023-03-01T10:56:14;11.13;;;5.18;;
43042;SDS011;28667;50.758;6.096;2023-03-01T11:01:36;14.20;;;5.40;;
43042;SDS011;28667;50.758;6.096;2023-03-01T11:04:07;12.40;;;6.07;;
43042;SDS011;28667;50.758;6.096;2023-03-01T11:06:35;12.57;;;5.40;;
43042;SDS011;28667;50.758;6.096;2023-03-01T11:11:45;19.77;;;6.00;;
43042;SDS011;28667;50.758;6.096;2023-03-01T11:14:17;9.05;;;5.57;;
43042;SDS011;28667;50.758;6.096;2023-03-01T11:16:48;10.02;;;5.82;;
43042;SDS011;28667;50.758;6.096;2023-03-01T11:19:23;10.25;;;5.22;;
43042;SDS011;28667;50.758;6.096;2023-03-01T11:24:46;14.00;;;6.03;;
43042;SDS011;28667;50.758;6.096;2023-03-01T11:27:33;11.27;;;5.68;;
43042;SDS011;28667;50.758;6.096;2023-03-01T11:32:53;14.30;;;5.53;;
43042;SDS011;28667;50.758;6.096;2023-03-01T11:35:28;14.00;;;6.47;;
43042;SDS011;28667;50.758;6.096;2023-03-01T11:41:13;11.65;;;5.68;;
43042;SDS011;28667;50.758;6.096;2023-03-01T11:44:03;14.77;;;5.35;;
43042;SDS011;28667;50.758;6.096;2023-03-01T11:49:38;13.02;;;6.20;;
43042;SDS011;28667;50.758;6.096;2023-03-01T12:05:42;14.32;;;6.43;;
43042;SDS011;28667;50.758;6.096;2023-03-01T12:08:32;9.18;;;5.63;;
43042;SDS011;28667;50.758;6.096;2023-03-01T12:21:45;11.23;;;5.32;;
43042;SDS011;28667;50.758;6.096;2023-03-01T12:41:01;13.38;;;6.65;;
43042;SDS011;28667;50.758;6.096;2023-03-01T12:51:28;11.23;;;6.15;;
43042;SDS011;28667;50.758;6.096;2023-03-01T12:53:58;16.05;;;7.43;;
43042;SDS011;28667;50.758;6.096;2023-03-01T12:56:28;19.10;;;7.80;;
43042;SDS011;28667;50.758;6.096;2023-03-01T13:04:45;13.32;;;5.97;;
43042;SDS011;28667;50.758;6.096;2023-03-01T13:15:34;13.32;;;6.53;;
43042;SDS011;28667;50.758;6.096;2023-03-01T13:30:59;11.65;;;6.03;;
43042;SDS011;28667;50.758;6.096;2023-03-01T13:35:52;14.25;;;6.70;;
43042;SDS011;28667;50.758;6.096;2023-03-01T13:44:48;10.93;;;6.03;;
43042;SDS011;28667;50.758;6.096;2023-03-01T13:46:58;10.45;;;5.30;;
43042;SDS011;28667;50.758;6.096;2023-03-01T13:49:33;13.27;;;5.93;;
43042;SDS011;28667;50.758;6.096;2023-03-01T13:52:21;8.48;;;5.43;;
43042;SDS011;28667;50.758;6.096;2023-03-01T13:54:59;14.73;;;6.28;;
43042;SDS011;28667;50.758;6.096;2023-03-01T13:57:29;11.57;;;7.03;;
43042;SDS011;28667;50.758;6.096;2023-03-01T13:59:59;10.48;;;5.78;;
43042;SDS011;28667;50.758;6.096;2023-03-01T14:02:25;14.13;;;6.30;;
43042;SDS011;28667;50.758;6.096;2023-03-01T14:04:58;13.20;;;5.43;;
43042;SDS011;28667;50.758;6.096;2023-03-01T14:07:28;9.40;;;5.60;;
43042;SDS011;28667;50.758;6.096;2023-03-01T14:10:00;13.00;;;5.57;;
43042;SDS011;28667;50.758;6.096;2023-03-01T14:15:32;13.45;;;5.28;;
43042;SDS011;28667;50.758;6.096;2023-03-01T14:18:14;10.95;;;5.65;;
43042;SDS011;28667;50.758;6.096;2023-03-01T14:20:46;9.25;;;5.22;;
43042;SDS011;28667;50.758;6.096;2023-03-01T14:23:20;10.30;;;4.90;;
43042;SDS011;28667;50.758;6.096;2023-03-01T14:25:51;11.18;;;6.03;;
43042;SDS011;28667;50.758;6.096;2023-03-01T14:28:20;9.85;;;4.93;;
43042;SDS011;28667;50.758;6.096;2023-03-01T14:30:50;9.10;;;4.68;;
43042;SDS011;28667;50.758;6.096;2023-03-01T14:33:24;7.93;;;4.45;;
43042;SDS011;28667;50.758;6.096;2023-03-01T14:44:02;12.85;;;5.40;;
43042;SDS011;28667;50.758;6.096;2023-03-01T14:46:33;10.13;;;5.53;;
43042;SDS011;28667;50.758;6.096;2023-03-01T14:49:26;12.43;;;6.78;;
43042;SDS011;28667;50.758;6.096;2023-03-01T14:52:05;12.00;;;5.82;;
43042;SDS011;28667;50.758;6.096;2023-03-01T14:54:42;11.20;;;5.90;;
43042;SDS011;28667;50.758;6.096;2023-03-01T14:57:14;10.27;;;5.32;;
43042;SDS011;28667;50.758;6.096;2023-03-01T14:59:41;12.57;;;5.97;;
43042;SDS011;28667;50.758;6.096;2023-03-01T15:02:11;13.13;;;6.50;;
43042;SDS011;28667;50.758;6.096;2023-03-01T15:04:42;13.02;;;5.50;;
43042;SDS011;28667;50.758;6.096;2023-03-01T15:07:11;10.32;;;5.95;;
43042;SDS011;28667;50.758;6.096;2023-03-01T15:09:39;10.55;;;5.78;;
43042;SDS011;28667;50.758;6.096;2023-03-01T15:12:25;10.43;;;5.40;;
43042;SDS011;28667;50.758;6.096;2023-03-01T15:14:51;9.05;;;4.93;;
43042;SDS011;28667;50.758;6.096;2023-03-01T15:17:30;13.55;;;5.40;;
43042;SDS011;28667;50.758;6.096;2023-03-01T15:20:02;10.45;;;5.28;;
43042;SDS011;28667;50.758;6.096;2023-03-01T15:22:29;11.65;;;5.43;;
43042;SDS011;28667;50.758;6.096;2023-03-01T15:24:55;14.75;;;6.47;;
43042;SDS011;28667;50.758;6.096;2023-03-01T15:27:23;15.32;;;5.20;;
43042;SDS011;28667;50.758;6.096;2023-03-01T15:29:54;10.77;;;5.18;;
43042;SDS011;28667;50.758;6.096;2023-03-01T15:32:33;8.82;;;5.13;;
43042;SDS011;28667;50.758;6.096;2023-03-01T15:42:04;9.10;;;4.93;;
43042;SDS011;28667;50.758;6.096;2023-03-01T15:44:16;9.80;;;4.75;;
43042;SDS011;28667;50.758;6.096;2023-03-01T15:46:53;7.40;;;4.70;;
43042;SDS011;28667;50.758;6.096;2023-03-01T15:51:50;7.18;;;4.45;;
43042;SDS011;28667;50.758;6.096;2023-03-01T15:54:20;11.73;;;4.50;;
43042;SDS011;28667;50.758;6.096;2023-03-01T15:56:48;10.98;;;4.13;;
43042;SDS011;28667;50.758;6.096;2023-03-01T15:59:15;5.70;;;3.47;;
43042;SDS011;28667;50.758;6.096;2023-03-01T16:01:42;5.10;;;4.28;;
43042;SDS011;28667;50.758;6.096;2023-03-01T16:04:12;12.32;;;4.50;;
43042;SDS011;28667;50.758;6.096;2023-03-01T16:06:46;7.95;;;4.35;;
43042;SDS011;28667;50.758;6.096;2023-03-01T16:09:20;8.20;;;4.78;;
43042;SDS011;28667;50.758;6.096;2023-03-01T16:11:47;12.52;;;4.70;;
43042;SDS011;28667;50.758;6.096;2023-03-01T16:14:13;8.43;;;4.20;;
43042;SDS011;28667;50.758;6.096;2023-03-01T16:16:40;7.90;;;4.53;;
43042;SDS011;28667;50.758;6.096;2023-03-01T16:19:05;8.60;;;4.43;;
43042;SDS011;28667;50.758;6.096;2023-03-01T16:21:31;6.50;;;4.03;;
43042;SDS011;28667;50.758;6.096;2023-03-01T16:23:57;12.52;;;5.70;;
43042;SDS011;28667;50.758;6.096;2023-03-01T16:26:22;7.80;;;4.57;;
43042;SDS011;28667;50.758;6.096;2023-03-01T16:28:48;8.45;;;4.55;;
43042;SDS011;28667;50.758;6.096;2023-03-01T16:31:16;10.23;;;4.55;;
43042;SDS011;28667;50.758;6.096;2023-03-01T16:33:44;9.13;;;4.38;;
43042;SDS011;28667;50.758;6.096;2023-03-01T16:36:14;7.18;;;4.68;;
43042;SDS011;28667;50.758;6.096;2023-03-01T16:38:42;8.73;;;4.78;;
43042;SDS011;28667;50.758;6.096;2023-03-01T16:41:11;8.07;;;4.30;;
43042;SDS011;28667;50.758;6.096;2023-03-01T16:43:38;11.63;;;5.20;;
43042;SDS011;28667;50.758;6.096;2023-03-01T16:46:11;9.73;;;4.65;;
43042;SDS011;28667;50.758;6.096;2023-03-01T16:48:44;8.05;;;4.35;;
43042;SDS011;28667;50.758;6.096;2023-03-01T16:51:11;7.85;;;4.70;;
43042;SDS011;28667;50.758;6.096;2023-03-01T16:53:37;8.85;;;4.30;;
43042;SDS011;28667;50.758;6.096;2023-03-01T16:56:05;8.20;;;3.92;;
43042;SDS011;28667;50.758;6.096;2023-03-01T16:58:33;7.85;;;4.50;;
43042;SDS011;28667;50.758;6.096;2023-03-01T17:01:03;8.27;;;4.38;;
43042;SDS011;28667;50.758;6.096;2023-03-01T17:03:37;7.63;;;3.90;;
43042;SDS011;28667;50.758;6.096;2023-03-01T17:06:04;7.82;;;3.95;;
43042;SDS011;28667;50.758;6.096;2023-03-01T17:08:32;12.38;;;5.13;;
43042;SDS011;28667;50.758;6.096;2023-03-01T17:13:31;7.82;;;4.15;;
43042;SDS011;28667;50.758;6.096;2023-03-01T17:15:57;8.43;;;4.43;;
43042;SDS011;28667;50.758;6.096;2023-03-01T17:18:22;6.50;;;4.35;;
43042;SDS011;28667;50.758;6.096;2023-03-01T17:20:49;7.40;;;4.15;;
43042;SDS011;28667;50.758;6.096;2023-03-01T17:23:15;9.48;;;4.65;;
43042;SDS011;28667;50.758;6.096;2023-03-01T17:25:41;6.35;;;4.10;;
43042;SDS011;28667;50.758;6.096;2023-03-01T17:28:09;7.85;;;4.03;;
43042;SDS011;28667;50.758;6.096;2023-03-01T17:30:35;9.27;;;4.75;;
43042;SDS011;28667;50.758;6.096;2023-03-01T17:33:02;8.80;;;4.15;;
43042;SDS011;28667;50.758;6.096;2023-03-01T17:35:27;7.10;;;3.53;;
43042;SDS011;28667;50.758;6.096;2023-03-01T17:37:53;9.43;;;4.70;;
43042;SDS011;28667;50.758;6.096;2023-03-01T17:40:19;11.32;;;4.20;;
43042;SDS011;28667;50.758;6.096;2023-03-01T17:42:45;10.73;;;4.43;;
43042;SDS011;28667;50.758;6.096;2023-03-01T17:45:11;9.80;;;3.67;;
43042;SDS011;28667;50.758;6.096;2023-03-01T17:47:36;8.75;;;3.85;;
43042;SDS011;28667;50.758;6.096;2023-03-01T17:50:02;6.63;;;3.22;;
43042;SDS011;28667;50.758;6.096;2023-03-01T17:52:30;9.07;;;4.05;;
43042;SDS011;28667;50.758;6.096;2023-03-01T17:54:55;10.45;;;4.13;;
43042;SDS011;28667;50.758;6.096;2023-03-01T17:57:21;9.45;;;3.85;;
43042;SDS011;28667;50.758;6.096;2023-03-01T17:59:47;7.90;;;4.40;;
43042;SDS011;28667;50.758;6.096;2023-03-01T18:02:13;7.53;;;4.18;;
43042;SDS011;28667;50.758;6.096;2023-03-01T18:04:38;6.63;;;3.88;;
43042;SDS011;28667;50.758;6.096;2023-03-01T18:07:07;6.47;;;4.03;;
43042;SDS011;28667;50.758;6.096;2023-03-01T18:09:33;11.23;;;4.45;;
43042;SDS011;28667;50.758;6.096;2023-03-01T18:11:59;11.88;;;4.63;;
43042;SDS011;28667;50.758;6.096;2023-03-01T18:14:25;8.43;;;4.25;;
43042;SDS011;28667;50.758;6.096;2023-03-01T18:16:54;12.02;;;4.53;;
43042;SDS011;28667;50.758;6.096;2023-03-01T18:19:20;4.57;;;3.53;;